Wheatfield, Indiana
Current Conditions -  °F | °C
As of 7:35 AM on Friday 19 Dec 2014 (Local Time) from KRZL Reporting Station
Overcast Overcast  
Wind Chill: 22°   Ceiling: 2300
Heat Index: 28°   Visibility: 7mi
Dew Point: 28°   Wind: 6mph
Humidity: 100%   Direction: 280°W
Pressure: 30.28"   Gusts: NA
Location:  41.19°N, 87.06°W
Report Text: KRZL 191335Z AUTO 28005KT 7SM OVC023 M02/M02 A3028 RMK AO2
Loading
Personal Weather Stations






























Interactive Weather Map New forecast layout! Learn more

10-Day Weather Forecast

Advertisements
Track Severe Weather on mobile